Time;durP1;ratioP1;P1;durP2;ratioP2;P2;SDS_P1;SDS_P2;PMS_P1;PMS_P2;Temp;Humidity;BMP_temperature;BMP_pressure;BME280_temperature;BME280_humidity;BME280_pressure;Samples;Min_cycle;Max_cycle;Signal;HPM_P1;HPM_P2
2023/01/19 00:01:26;;;;;;;6.15;3.53;;;;;;;9.89;43.48;100026.13;5013897;28;20073;-62
2023/01/19 00:03:52;;;;;;;13.63;3.95;;;;;;;9.90;43.93;100022.47;5016023;28;20522;-62
2023/01/19 00:06:17;;;;;;;6.55;3.63;;;;;;;9.90;43.63;100024.28;5013783;28;20044;-62
2023/01/19 00:08:48;;;;;;;8.55;3.90;;;;;;;9.87;43.47;100028.09;5013789;28;20107;-62
2023/01/19 00:11:16;;;;;;;5.65;3.65;;;;;;;9.85;43.75;100034.59;5015031;28;20038;-62
2023/01/19 00:13:48;;;;;;;5.30;3.63;;;;;;;9.83;43.81;100032.03;5013587;28;20114;-62
2023/01/19 00:16:16;;;;;;;6.77;3.43;;;;;;;9.81;43.84;100044.72;5014356;28;20030;-62
2023/01/19 00:18:41;;;;;;;6.43;3.22;;;;;;;9.82;43.79;100038.41;5013704;28;20042;-62
2023/01/19 00:21:07;;;;;;;6.82;3.20;;;;;;;9.82;43.50;100043.75;5013886;28;20375;-62
2023/01/19 00:23:32;;;;;;;6.00;3.58;;;;;;;9.81;43.99;100044.72;5015151;28;20038;-62
2023/01/19 00:25:57;;;;;;;6.00;3.92;;;;;;;9.82;43.78;100051.78;5014712;28;20091;-62
2023/01/19 00:28:23;;;;;;;7.60;3.38;;;;;;;9.82;43.90;100041.06;5014609;28;20042;-63
2023/01/19 00:30:49;;;;;;;6.75;3.15;;;;;;;9.75;43.85;100039.09;5013817;28;20038;-62
2023/01/19 00:33:15;;;;;;;6.30;3.45;;;;;;;9.83;44.60;100049.91;5014524;28;20065;-62
2023/01/19 00:35:44;;;;;;;5.70;2.83;;;;;;;9.81;43.87;100049.22;5014443;28;20073;-62
2023/01/19 00:38:10;;;;;;;6.82;3.28;;;;;;;9.80;43.91;100052.88;5013381;28;20513;-62
2023/01/19 00:40:36;;;;;;;6.18;3.30;;;;;;;9.81;43.77;100042.03;5014047;28;20073;-62
2023/01/19 00:43:02;;;;;;;7.38;3.92;;;;;;;9.77;43.95;100058.53;4997638;28;20462;-62
2023/01/19 00:45:28;;;;;;;7.35;3.30;;;;;;;9.75;43.62;100055.13;5014234;28;20075;-62
2023/01/19 00:47:55;;;;;;;8.02;3.42;;;;;;;9.72;44.32;100056.28;5014420;28;20124;-62
2023/01/19 00:50:24;;;;;;;6.38;3.38;;;;;;;9.75;44.05;100056.00;5014331;28;20045;-62
2023/01/19 00:52:52;;;;;;;13.38;3.92;;;;;;;9.75;44.05;100064.00;5013047;28;20124;-62
2023/01/19 00:55:17;;;;;;;9.40;3.67;;;;;;;9.73;43.84;100057.97;5014733;28;20164;-62
2023/01/19 00:57:42;;;;;;;7.75;4.25;;;;;;;9.73;43.78;100068.66;5011890;28;20125;-62
2023/01/19 01:00:14;;;;;;;5.78;3.35;;;;;;;9.71;43.47;100062.63;5012714;28;20502;-62
2023/01/19 01:02:40;;;;;;;6.07;3.53;;;;;;;9.63;44.20;100054.44;5014081;28;20033;-62
2023/01/19 01:05:07;;;;;;;10.82;4.10;;;;;;;9.64;43.93;100058.81;4996651;28;20406;-62
2023/01/19 01:07:43;;;;;;;8.27;3.03;;;;;;;9.62;43.85;100063.47;5012800;28;20120;-62
2023/01/19 01:10:19;;;;;;;6.93;3.55;;;;;;;9.58;43.96;100063.88;5013371;28;20394;-62
2023/01/19 01:12:44;;;;;;;5.85;3.50;;;;;;;9.56;44.16;100061.34;5012588;28;20103;-62
2023/01/19 01:15:11;;;;;;;7.28;3.83;;;;;;;9.56;44.28;100061.34;5012591;28;20486;-62
2023/01/19 01:17:46;;;;;;;4.88;3.60;;;;;;;9.56;44.24;100063.19;4996287;28;20057;-62
2023/01/19 01:20:19;;;;;;;7.60;3.70;;;;;;;9.52;44.37;100059.13;5012773;28;20489;-62
2023/01/19 01:22:47;;;;;;;7.43;3.72;;;;;;;9.49;44.41;100057.53;5014058;28;20037;-62
2023/01/19 01:25:14;;;;;;;5.65;3.63;;;;;;;9.46;44.21;100062.34;5014425;28;20088;-62
2023/01/19 01:27:40;;;;;;;5.88;3.75;;;;;;;9.43;44.23;100071.50;5014339;28;20034;-62
2023/01/19 01:30:06;;;;;;;6.53;3.30;;;;;;;9.41;43.92;100062.75;5017692;28;20057;-62
2023/01/19 01:32:32;;;;;;;6.00;3.38;;;;;;;9.34;44.18;100050.97;5013416;28;20108;-62
2023/01/19 01:34:57;;;;;;;5.20;3.60;;;;;;;9.33;43.85;100051.94;5013313;28;20495;-62
2023/01/19 01:37:23;;;;;;;6.75;3.38;;;;;;;9.28;44.17;100052.34;5013212;28;20026;-62
2023/01/19 01:39:49;;;;;;;9.00;3.75;;;;;;;9.26;44.28;100058.84;5014295;28;20076;-62
2023/01/19 01:42:19;;;;;;;7.15;4.13;;;;;;;9.23;44.47;100053.75;5013980;28;20042;-62
2023/01/19 01:44:53;;;;;;;7.93;3.35;;;;;;;9.22;44.79;100062.75;5013774;28;20088;-62
2023/01/19 01:47:24;;;;;;;6.43;3.38;;;;;;;9.20;43.56;100060.22;5012268;28;20044;-62
2023/01/19 01:49:54;;;;;;;8.77;4.53;;;;;;;9.17;44.04;100060.50;5012171;28;20038;-62
2023/01/19 01:52:22;;;;;;;9.93;3.72;;;;;;;9.19;44.60;100063.88;5013264;28;20030;-61
2023/01/19 01:54:47;;;;;;;7.10;3.75;;;;;;;9.19;44.25;100063.88;5011969;28;20108;-62
2023/01/19 01:57:13;;;;;;;9.15;3.85;;;;;;;9.16;44.32;100058.81;5012049;28;20495;-62
2023/01/19 01:59:44;;;;;;;6.93;3.95;;;;;;;9.19;44.13;100058.53;5013264;28;20044;-61
2023/01/19 02:05:10;;;;;;;8.75;3.72;;;;;;;9.22;44.97;100062.75;5012404;28;20073;-61
2023/01/19 02:13:27;;;;;;;7.97;3.80;;;;;;;9.20;44.64;100064.72;5012156;28;20069;-62
2023/01/19 02:15:57;;;;;;;7.68;4.43;;;;;;;9.21;44.57;100069.09;5012296;28;20030;-61
2023/01/19 02:18:25;;;;;;;13.32;3.95;;;;;;;9.22;44.22;100054.72;5013211;28;20034;-61
2023/01/19 02:21:00;;;;;;;7.32;4.15;;;;;;;9.22;44.48;100057.41;5013115;28;20030;-61
2023/01/19 02:23:34;;;;;;;13.95;3.97;;;;;;;9.22;44.54;100052.91;5013287;28;20069;-61
2023/01/19 02:25:59;;;;;;;8.70;3.58;;;;;;;9.22;43.49;100065.41;4995730;28;20038;-62
2023/01/19 02:28:25;;;;;;;6.15;3.17;;;;;;;9.21;44.62;100069.09;5013051;28;20117;-62
2023/01/19 02:30:51;;;;;;;8.38;3.65;;;;;;;9.20;44.38;100067.41;5012304;28;20394;-61
2023/01/19 02:33:17;;;;;;;9.57;4.38;;;;;;;9.24;44.14;100066.16;5012872;28;20038;-61
2023/01/19 02:35:43;;;;;;;12.68;4.05;;;;;;;9.26;44.52;100064.19;5013074;28;20490;-61
2023/01/19 02:38:09;;;;;;;8.43;4.35;;;;;;;9.27;44.83;100068.50;5011976;28;20048;-61
2023/01/19 02:40:35;;;;;;;5.68;3.40;;;;;;;9.24;44.90;100056.28;5013184;28;20029;-62
2023/01/19 02:43:01;;;;;;;7.75;3.97;;;;;;;9.28;43.97;100063.06;5012241;28;20076;-62
2023/01/19 02:45:28;;;;;;;10.98;4.47;;;;;;;9.28;44.78;100054.19;5011655;28;20117;-62
2023/01/19 02:47:54;;;;;;;16.17;4.38;;;;;;;9.29;44.14;100053.22;5011554;28;20091;-62
2023/01/19 02:50:54;;;;;;;10.80;4.80;;;;;;;9.35;44.50;100066.03;5010759;28;20128;-62
2023/01/19 02:53:52;;;;;;;9.10;4.00;;;;;;;9.33;44.48;100065.28;5011444;28;20034;-62
2023/01/19 02:56:23;;;;;;;10.23;4.60;;;;;;;9.33;44.82;100066.13;5011530;28;20100;-62
2023/01/19 02:59:28;;;;;;;7.75;4.38;;;;;;;9.36;44.93;100070.34;5011535;28;20505;-62
2023/01/19 03:02:09;;;;;;;7.63;4.35;;;;;;;9.34;44.20;100067.00;5011306;28;20041;-61
2023/01/19 03:04:47;;;;;;;8.32;4.13;;;;;;;9.34;44.81;100067.00;5014402;28;20061;-61
2023/01/19 03:07:19;;;;;;;9.07;4.82;;;;;;;9.34;45.10;100070.50;5016642;28;20030;-62
2023/01/19 03:09:59;;;;;;;12.20;3.67;;;;;;;9.36;44.89;100079.22;4998537;28;20414;-62
2023/01/19 03:12:47;;;;;;;16.02;4.10;;;;;;;9.38;45.01;100074.56;5015245;28;20446;-62
2023/01/19 03:15:41;;;;;;;11.80;3.97;;;;;;;9.39;45.05;100080.78;5015205;28;20042;-62
2023/01/19 03:18:08;;;;;;;8.27;3.97;;;;;;;9.33;45.27;100059.94;5016371;28;20038;-62
2023/01/19 03:20:34;;;;;;;8.30;4.82;;;;;;;9.40;44.70;100071.78;4998460;28;20053;-62
2023/01/19 03:23:02;;;;;;;10.23;4.32;;;;;;;9.41;44.66;100077.97;4998509;28;20038;-62
2023/01/19 03:25:30;;;;;;;9.75;4.35;;;;;;;9.36;45.18;100065.00;5016074;28;20026;-62
2023/01/19 03:27:56;;;;;;;10.02;4.10;;;;;;;9.46;44.82;100079.25;5020566;28;20022;-62
2023/01/19 03:30:26;;;;;;;11.85;4.43;;;;;;;9.44;45.15;100078.50;5015455;28;20030;-62
2023/01/19 03:32:59;;;;;;;14.93;5.78;;;;;;;9.45;44.87;100082.88;5016017;28;20061;-62
2023/01/19 03:35:25;;;;;;;;;;;;;;;9.48;44.83;100087.09;5015126;28;20066;-62
2023/01/19 03:37:53;;;;;;;9.73;4.43;;;;;;;9.44;44.64;100077.66;4997992;28;19914;-62
2023/01/19 03:40:19;;;;;;;13.88;4.30;;;;;;;9.47;44.70;100082.72;5014761;28;20018;-62
2023/01/19 03:42:45;;;;;;;11.63;3.78;;;;;;;9.47;45.36;100080.06;5014497;28;20406;-62
2023/01/19 03:45:11;;;;;;;14.13;5.00;;;;;;;9.50;44.75;100080.63;5015630;28;20030;-62
2023/01/19 03:47:37;;;;;;;8.73;4.38;;;;;;;9.52;45.09;100084.00;5014215;28;20506;-61
2023/01/19 03:50:07;;;;;;;10.52;4.32;;;;;;;9.53;44.95;100088.38;5014278;28;20060;-62
2023/01/19 03:52:32;;;;;;;8.13;4.30;;;;;;;9.52;45.20;100100.03;5014176;28;20065;-62
2023/01/19 03:55:03;;;;;;;9.30;3.67;;;;;;;9.52;44.61;100108.06;4998330;28;20026;-62
2023/01/19 03:57:28;;;;;;;10.95;5.28;;;;;;;9.53;45.10;100103.56;5013939;28;20088;-62
2023/01/19 03:59:54;;;;;;;11.40;4.38;;;;;;;9.54;44.99;100106.13;5015303;28;20041;-62
2023/01/19 04:02:20;;;;;;;10.07;3.78;;;;;;;9.53;45.42;100104.41;5015220;28;20125;-62
2023/01/19 04:04:46;;;;;;;9.52;4.43;;;;;;;9.54;44.48;100103.44;5014118;28;20038;-62
2023/01/19 04:07:11;;;;;;;8.57;4.10;;;;;;;9.57;45.45;100110.34;5014305;28;20453;-62
2023/01/19 04:09:36;;;;;;;7.32;4.10;;;;;;;9.58;44.89;100110.19;5013757;28;20041;-62
2023/01/19 04:12:02;;;;;;;12.88;4.43;;;;;;;9.60;44.99;100108.22;5015027;28;20065;-62
2023/01/19 04:14:28;;;;;;;8.48;4.38;;;;;;;9.54;45.40;100103.44;5015117;28;20034;-62
2023/01/19 04:16:53;;;;;;;9.50;4.65;;;;;;;9.57;45.12;100111.19;5013087;28;20062;-62
2023/01/19 04:19:19;;;;;;;9.90;4.25;;;;;;;9.58;45.60;100112.84;5015348;28;20136;-62
2023/01/19 04:21:47;;;;;;;13.65;5.28;;;;;;;9.54;45.15;100115.94;5014729;28;20092;-62
2023/01/19 04:24:12;;;;;;;13.38;5.22;;;;;;;9.60;44.73;100116.25;5014782;28;20050;-62
2023/01/19 04:26:38;;;;;;;11.18;4.63;;;;;;;9.61;45.12;100109.91;5014681;28;20169;-62
2023/01/19 04:29:04;;;;;;;11.25;4.72;;;;;;;9.63;45.52;100110.59;4997173;28;20510;-62
2023/01/19 04:31:30;;;;;;;8.07;4.53;;;;;;;9.63;45.76;100110.59;5014470;28;20406;-62
2023/01/19 04:33:55;;;;;;;12.45;4.57;;;;;;;9.62;45.52;100114.28;5015280;28;20435;-62
2023/01/19 04:36:21;;;;;;;10.35;4.47;;;;;;;9.58;45.25;100118.19;5013349;28;20125;-62
2023/01/19 04:38:47;;;;;;;12.23;4.53;;;;;;;9.56;45.40;100120.19;5013341;28;20449;-62
2023/01/19 04:41:13;;;;;;;9.65;4.25;;;;;;;9.56;45.67;100127.34;5014393;28;20557;-62
2023/01/19 04:43:38;;;;;;;16.33;5.00;;;;;;;9.55;45.58;100123.81;5014827;28;20030;-62
2023/01/19 04:46:04;;;;;;;14.20;5.30;;;;;;;9.57;45.75;100126.38;5014922;28;20401;-62
2023/01/19 04:48:29;;;;;;;23.85;5.35;;;;;;;9.54;45.67;100132.84;5013347;28;20045;-62
2023/01/19 04:50:54;;;;;;;12.77;5.05;;;;;;;9.50;44.89;100134.09;5013586;28;20056;-62
2023/01/19 04:53:20;;;;;;;13.63;5.57;;;;;;;9.49;45.77;100137.75;5013388;28;20414;-62
2023/01/19 04:55:45;;;;;;;11.75;4.70;;;;;;;9.46;45.84;100135.38;5012897;28;20033;-62
2023/01/19 04:58:11;;;;;;;12.07;4.50;;;;;;;9.44;45.74;100134.66;5014620;28;20104;-62
2023/01/19 05:00:36;;;;;;;10.80;5.90;;;;;;;9.44;45.42;100148.00;5012918;28;20057;-62
2023/01/19 05:03:03;;;;;;;14.57;5.10;;;;;;;9.35;45.51;100133.66;5014276;28;20048;-62
2023/01/19 05:05:28;;;;;;;13.10;4.88;;;;;;;9.36;46.08;100142.50;5013198;28;20049;-62
2023/01/19 05:07:54;;;;;;;14.68;5.68;;;;;;;9.30;46.15;100143.06;4996347;28;20038;-63
2023/01/19 05:10:19;;;;;;;11.00;5.32;;;;;;;9.28;45.47;100148.56;5014560;28;20548;-62
2023/01/19 05:12:45;;;;;;;17.23;5.35;;;;;;;9.30;45.46;100161.78;5013941;28;20080;-62
2023/01/19 05:15:10;;;;;;;11.82;5.35;;;;;;;9.27;45.79;100156.69;5013919;28;20038;-62
2023/01/19 05:17:36;;;;;;;13.13;4.95;;;;;;;9.28;46.07;100155.72;5012782;28;20406;-63
2023/01/19 05:20:03;;;;;;;20.95;6.10;;;;;;;9.32;45.91;100162.50;5014178;28;20398;-63
2023/01/19 05:22:28;;;;;;;18.95;5.85;;;;;;;9.33;45.92;100156.16;5014211;28;20030;-63
2023/01/19 05:24:53;;;;;;;10.80;5.43;;;;;;;9.30;46.42;100153.75;5015191;28;20022;-63
2023/01/19 05:27:19;;;;;;;17.98;6.15;;;;;;;9.27;46.40;100152.19;5015541;28;20416;-62
2023/01/19 05:29:44;;;;;;;12.48;5.78;;;;;;;9.30;45.96;100159.94;5012503;28;20037;-62
2023/01/19 05:32:10;;;;;;;11.23;4.97;;;;;;;9.32;45.58;100159.81;5012557;28;20490;-62
2023/01/19 05:34:35;;;;;;;11.57;5.22;;;;;;;9.31;46.06;100166.16;5013562;28;20037;-62
2023/01/19 05:37:01;;;;;;;14.35;5.82;;;;;;;9.29;46.02;100170.78;5014105;28;20065;-62
2023/01/19 05:39:27;;;;;;;12.43;5.13;;;;;;;9.25;45.65;100158.66;5013590;28;20041;-62
2023/01/19 05:41:52;;;;;;;13.57;5.93;;;;;;;9.26;46.51;100177.25;5012000;28;20046;-62
2023/01/19 05:44:18;;;;;;;16.48;6.10;;;;;;;9.27;46.40;100184.28;5013645;28;20045;-62
2023/01/19 05:46:43;;;;;;;15.25;5.40;;;;;;;9.27;46.00;100178.06;5013486;28;20548;-62
2023/01/19 05:49:10;;;;;;;10.45;4.93;;;;;;;9.28;46.53;100187.78;5013762;28;20092;-62
2023/01/19 05:51:43;;;;;;;18.23;5.32;;;;;;;9.23;45.89;100188.22;5012244;28;20042;-62
2023/01/19 05:54:11;;;;;;;12.52;5.80;;;;;;;9.30;46.09;100215.22;5013353;28;20058;-62
2023/01/19 05:56:38;;;;;;;11.10;4.57;;;;;;;9.30;46.25;100215.22;5012017;28;20038;-63
2023/01/19 05:59:03;;;;;;;12.05;5.35;;;;;;;9.28;46.63;100223.38;5012202;28;20418;-64
2023/01/19 06:01:29;;;;;;;11.20;5.15;;;;;;;9.28;46.18;100227.88;5012131;28;20046;-64
2023/01/19 06:03:54;;;;;;;13.27;5.28;;;;;;;9.21;46.87;100227.56;4996155;28;20036;-64
2023/01/19 06:06:19;;;;;;;14.70;5.50;;;;;;;9.20;46.61;100219.69;5012271;28;20029;-63
2023/01/19 06:08:45;;;;;;;14.07;5.15;;;;;;;9.17;46.37;100228.84;5012193;28;20116;-64
2023/01/19 06:11:11;;;;;;;11.27;4.57;;;;;;;9.13;46.76;100224.72;5012110;28;20038;-63
2023/01/19 06:13:38;;;;;;;10.18;5.20;;;;;;;9.09;47.16;100231.34;5011968;28;20048;-63
2023/01/19 06:16:05;;;;;;;14.18;5.20;;;;;;;9.06;46.29;100222.72;5013644;28;20088;-63
2023/01/19 06:18:30;;;;;;;13.40;4.72;;;;;;;9.03;46.70;100218.50;5011711;28;20073;-63
2023/01/19 06:20:58;;;;;;;8.32;4.53;;;;;;;9.02;46.38;100215.94;5012983;28;20074;-63
2023/01/19 06:23:29;;;;;;;14.00;5.25;;;;;;;8.97;46.52;100213.69;5012915;28;20060;-63
2023/01/19 06:25:55;;;;;;;9.45;4.68;;;;;;;8.98;46.55;100226.09;5013301;28;20136;-63
2023/01/19 06:28:21;;;;;;;20.83;4.85;;;;;;;8.97;46.66;100224.38;5012645;28;20065;-63
2023/01/19 06:30:51;;;;;;;13.25;5.28;;;;;;;8.95;46.84;100222.81;5013145;28;20030;-63
2023/01/19 06:33:17;;;;;;;14.02;5.28;;;;;;;8.96;46.99;100219.19;5011903;28;20145;-63
2023/01/19 06:35:44;;;;;;;13.23;5.25;;;;;;;8.97;46.52;100239.56;5011852;28;20042;-63
2023/01/19 06:38:09;;;;;;;10.77;5.40;;;;;;;8.98;46.76;100244.78;5012135;28;20073;-63
2023/01/19 06:40:35;;;;;;;12.10;5.20;;;;;;;8.99;46.82;100249.13;5015844;28;20037;-63
2023/01/19 06:43:00;;;;;;;13.90;6.20;;;;;;;9.00;46.53;100249.97;5017901;28;20042;-63
2023/01/19 06:45:26;;;;;;;11.65;4.85;;;;;;;8.99;47.45;100256.31;5017333;28;20034;-63
2023/01/19 06:47:51;;;;;;;14.60;5.13;;;;;;;9.05;46.26;100259.28;5015982;28;20041;-63
2023/01/19 06:50:16;;;;;;;9.50;4.68;;;;;;;9.02;46.54;100259.53;5016929;28;20494;-62
2023/01/19 06:52:42;;;;;;;9.85;4.43;;;;;;;9.06;46.73;100273.50;4999543;28;20434;-63
2023/01/19 06:55:09;;;;;;;18.38;5.38;;;;;;;9.07;46.62;100272.53;5017139;28;20091;-63
2023/01/19 06:57:37;;;;;;;10.95;5.05;;;;;;;9.09;46.45;100271.41;5016107;28;20042;-63
2023/01/19 07:00:06;;;;;;;13.20;5.03;;;;;;;9.08;47.14;100256.34;5015519;28;20037;-63
2023/01/19 07:02:33;;;;;;;14.27;4.95;;;;;;;9.06;46.52;100255.63;5015449;28;20041;-63
2023/01/19 07:04:58;;;;;;;20.65;5.63;;;;;;;8.99;46.16;100241.09;4998940;28;20042;-63
2023/01/19 07:07:24;;;;;;;15.40;5.47;;;;;;;8.87;46.18;100231.50;5016542;28;20375;-63
2023/01/19 07:09:49;;;;;;;14.32;6.35;;;;;;;8.83;46.34;100237.22;5017325;28;20101;-63
2023/01/19 07:12:15;;;;;;;15.18;6.63;;;;;;;8.82;46.92;100240.91;5016346;28;20042;-63
2023/01/19 07:14:40;;;;;;;19.15;6.88;;;;;;;8.80;46.49;100257.03;5016027;28;20081;-63
2023/01/19 07:17:06;;;;;;;13.75;6.40;;;;;;;8.79;47.19;100264.19;4998511;28;20057;-63
2023/01/19 07:19:33;;;;;;;16.33;6.43;;;;;;;8.79;46.75;100274.06;5016028;28;20472;-63
2023/01/19 07:21:59;;;;;;;14.27;6.13;;;;;;;8.78;46.81;100265.19;5016753;28;20367;-63
2023/01/19 07:24:24;;;;;;;11.60;5.80;;;;;;;8.81;46.73;100271.25;5020243;28;20096;-63
2023/01/19 07:26:50;;;;;;;12.70;5.63;;;;;;;8.84;46.81;100281.66;5023025;28;20431;-63
2023/01/19 07:29:15;;;;;;;17.45;7.45;;;;;;;8.85;47.25;100278.84;5014652;28;20068;-63
2023/01/19 07:31:40;;;;;;;15.05;6.55;;;;;;;8.86;47.09;100285.03;5016099;28;20088;-63
2023/01/19 07:34:06;;;;;;;18.58;7.63;;;;;;;8.88;47.03;100283.09;5016117;28;20080;-63
2023/01/19 07:36:31;;;;;;;16.23;6.40;;;;;;;8.88;47.27;100288.44;5014678;28;20088;-63
2023/01/19 07:38:57;;;;;;;17.38;7.25;;;;;;;8.91;47.19;100293.50;5015579;28;20498;-63
2023/01/19 07:41:22;;;;;;;14.55;6.90;;;;;;;8.91;46.86;100288.16;5015513;28;20038;-63
2023/01/19 07:43:50;;;;;;;18.33;8.10;;;;;;;8.94;46.94;100287.88;5015816;28;20129;-63
2023/01/19 07:46:15;;;;;;;14.38;6.78;;;;;;;8.96;47.30;100291.31;5016257;28;20061;-63
2023/01/19 07:48:43;;;;;;;16.90;6.65;;;;;;;8.97;47.27;100298.31;5014311;28;20072;-63
2023/01/19 07:51:10;;;;;;;19.45;7.35;;;;;;;8.96;46.99;100302.81;5014398;28;20044;-63
2023/01/19 07:53:36;;;;;;;15.73;7.05;;;;;;;8.97;47.49;100306.31;5015159;28;20568;-63
2023/01/19 07:56:04;;;;;;;24.13;8.32;;;;;;;8.97;47.29;100309.84;5015299;28;20050;-63
2023/01/19 07:58:30;;;;;;;23.63;6.90;;;;;;;8.96;46.81;100305.47;5015465;28;20026;-63
2023/01/19 08:00:55;;;;;;;20.65;7.38;;;;;;;8.97;47.40;100304.50;5015531;28;20112;-63
2023/01/19 08:03:22;;;;;;;17.63;7.72;;;;;;;9.00;47.73;100311.41;5015173;28;20109;-63
2023/01/19 08:05:51;;;;;;;18.08;8.07;;;;;;;9.01;47.21;100315.78;5013911;28;20498;-64
2023/01/19 08:08:17;;;;;;;21.48;7.70;;;;;;;8.99;47.71;100312.41;5013975;28;20034;-63
2023/01/19 08:10:42;;;;;;;17.30;7.43;;;;;;;9.01;47.21;100318.47;5015185;28;20041;-63
2023/01/19 08:13:08;;;;;;;24.30;8.98;;;;;;;9.03;47.28;100314.66;5015245;28;20487;-63
2023/01/19 08:15:33;;;;;;;18.05;8.23;;;;;;;8.93;47.78;100296.91;5014846;28;20117;-63
2023/01/19 08:18:00;;;;;;;22.33;8.48;;;;;;;9.06;47.30;100314.41;5013725;28;20037;-63
2023/01/19 08:20:27;;;;;;;15.15;6.60;;;;;;;9.06;47.15;100314.41;5014928;28;20104;-63
2023/01/19 08:22:59;;;;;;;22.50;8.82;;;;;;;9.07;47.71;100315.25;5013364;28;20048;-63
2023/01/19 08:25:40;;;;;;;21.42;7.70;;;;;;;9.07;47.54;100315.25;5013953;28;20026;-63
2023/01/19 08:28:07;;;;;;;20.98;7.82;;;;;;;9.08;47.38;100316.94;5013927;28;20026;-63
2023/01/19 08:30:33;;;;;;;20.05;7.30;;;;;;;9.10;47.46;100321.16;5014612;28;20046;-63
2023/01/19 08:33:06;;;;;;;27.08;11.20;;;;;;;9.11;48.44;100314.84;5014568;28;20030;-63
2023/01/19 08:35:38;;;;;;;26.63;10.27;;;;;;;9.10;47.74;100320.34;5014474;28;20112;-63
2023/01/19 08:38:04;;;;;;;23.00;9.45;;;;;;;9.12;47.85;100326.41;4996934;28;20037;-63
2023/01/19 08:40:33;;;;;;;29.35;10.23;;;;;;;9.13;47.83;100330.72;5014604;28;20490;-63
2023/01/19 08:43:02;;;;;;;34.13;11.38;;;;;;;9.12;47.59;100329.91;5013854;28;20029;-63
2023/01/19 08:45:28;;;;;;;39.03;12.77;;;;;;;9.14;47.43;100337.78;5014562;28;20030;-64
2023/01/19 08:47:55;;;;;;;40.17;12.05;;;;;;;9.16;47.42;100338.50;5014432;28;20045;-63
2023/01/19 08:50:21;;;;;;;34.05;11.15;;;;;;;9.15;47.96;100347.50;5013479;28;20033;-63
2023/01/19 08:52:46;;;;;;;47.13;15.32;;;;;;;9.14;47.64;100332.44;5014195;28;20034;-64
2023/01/19 08:55:12;;;;;;;45.92;15.63;;;;;;;9.19;47.94;100341.75;5014480;28;20034;-64
2023/01/19 08:57:37;;;;;;;43.75;13.45;;;;;;;9.23;47.83;100353.03;4996560;28;20088;-64
2023/01/19 09:00:03;;;;;;;49.03;14.07;;;;;;;9.26;47.87;100352.78;5014069;28;20502;-64
2023/01/19 09:02:29;;;;;;;32.38;11.43;;;;;;;9.27;47.80;100359.78;5012993;28;20037;-64
2023/01/19 09:04:54;;;;;;;38.03;11.75;;;;;;;9.30;47.73;100359.53;5014244;28;20542;-64
2023/01/19 09:07:20;;;;;;;22.83;8.52;;;;;;;9.29;47.70;100357.84;5014337;28;20376;-64
2023/01/19 09:09:45;;;;;;;31.98;10.43;;;;;;;9.28;47.44;100366.84;4996487;28;20033;-64
2023/01/19 09:12:10;;;;;;;23.75;9.52;;;;;;;9.33;47.52;100375.28;5012648;28;20506;-64
2023/01/19 09:14:36;;;;;;;22.08;9.32;;;;;;;9.33;47.56;100369.94;5013913;28;20034;-64
2023/01/19 09:17:01;;;;;;;24.17;9.07;;;;;;;9.36;48.10;100369.69;5013546;28;20034;-64
2023/01/19 09:19:26;;;;;;;28.67;8.90;;;;;;;9.38;47.85;100378.41;5012627;28;20030;-64
2023/01/19 09:21:53;;;;;;;19.08;7.55;;;;;;;9.45;47.67;100373.41;5014411;28;20414;-64
2023/01/19 09:24:19;;;;;;;21.27;8.25;;;;;;;9.45;47.70;100376.91;5018570;28;20062;-64
2023/01/19 09:26:44;;;;;;;21.13;7.65;;;;;;;9.55;47.51;100376.97;5011624;28;20129;-64
2023/01/19 09:29:09;;;;;;;16.25;8.02;;;;;;;9.51;47.24;100376.38;5012720;28;20180;-64
2023/01/19 09:31:36;;;;;;;20.67;7.78;;;;;;;9.60;47.68;100382.75;5013661;28;20482;-64
2023/01/19 09:34:01;;;;;;;17.02;6.85;;;;;;;9.65;47.20;100386.72;5013884;28;20144;-64
2023/01/19 09:36:27;;;;;;;20.15;7.97;;;;;;;9.68;47.54;100391.81;5013671;28;20038;-65
2023/01/19 09:38:52;;;;;;;18.05;7.35;;;;;;;9.70;47.49;100392.50;5012414;28;20406;-65
2023/01/19 09:41:20;;;;;;;19.63;7.30;;;;;;;9.72;47.86;100395.03;5012162;28;20379;-65
2023/01/19 09:43:52;;;;;;;23.38;8.38;;;;;;;9.76;47.51;100400.00;5012382;28;20441;-64
2023/01/19 09:46:34;;;;;;;19.10;8.25;;;;;;;9.80;47.43;100406.75;4996481;28;20426;-65
2023/01/19 09:49:03;;;;;;;19.08;8.07;;;;;;;9.97;47.40;100401.78;5012316;28;20038;-65
2023/01/19 09:51:37;;;;;;;21.33;7.32;;;;;;;10.04;47.50;100402.91;5012435;28;20041;-64
2023/01/19 09:54:13;;;;;;;22.65;8.43;;;;;;;10.16;47.48;100408.03;5013361;28;20057;-64
2023/01/19 09:56:39;;;;;;;18.33;7.72;;;;;;;10.36;47.10;100404.44;5012037;28;20512;-64
2023/01/19 09:59:23;;;;;;;23.00;9.52;;;;;;;10.63;47.33;100411.81;5013566;28;20058;-64
2023/01/19 10:02:10;;;;;;;25.08;9.50;;;;;;;10.73;46.90;100406.44;5013022;28;20124;-65
2023/01/19 10:04:40;;;;;;;26.95;9.85;;;;;;;10.70;47.21;100418.28;5013091;28;20030;-64
2023/01/19 10:07:08;;;;;;;27.92;9.40;;;;;;;10.71;47.12;100411.94;5013612;28;20490;-64
2023/01/19 10:10:00;;;;;;;16.73;6.95;;;;;;;10.79;47.40;100413.91;5013552;28;20038;-64
2023/01/19 10:12:40;;;;;;;22.17;8.77;;;;;;;10.86;46.88;100423.09;5012645;28;20069;-64
2023/01/19 10:15:14;;;;;;;19.70;7.57;;;;;;;10.87;47.04;100419.41;5014785;28;20558;-64
2023/01/19 10:18:01;;;;;;;24.30;8.80;;;;;;;11.01;47.38;100410.94;4999843;28;20052;-63
2023/01/19 10:20:34;;;;;;;19.58;7.97;;;;;;;11.22;46.85;100424.19;5017350;28;20041;-63
2023/01/19 10:23:00;;;;;;;17.45;7.22;;;;;;;11.31;46.86;100426.84;4999602;28;20089;-64
2023/01/19 10:25:26;;;;;;;18.95;7.22;;;;;;;11.42;47.04;100425.84;5017085;28;20527;-64
2023/01/19 10:27:51;;;;;;;21.83;7.63;;;;;;;11.49;46.46;100426.97;5016311;28;20070;-63
2023/01/19 10:30:22;;;;;;;17.27;6.93;;;;;;;11.41;46.89;100418.78;5015806;28;20033;-64
2023/01/19 10:32:48;;;;;;;20.80;7.82;;;;;;;11.61;46.88;100425.81;5015891;28;20045;-63
2023/01/19 10:35:23;;;;;;;17.42;6.65;;;;;;;11.82;46.18;100429.16;5015964;28;20038;-63
2023/01/19 10:37:50;;;;;;;21.00;7.03;;;;;;;11.98;46.47;100431.19;5015828;28;20457;-64
2023/01/19 10:40:33;;;;;;;17.55;8.00;;;;;;;12.13;46.45;100427.88;5016837;28;20145;-64
2023/01/19 10:42:58;;;;;;;16.13;6.68;;;;;;;12.15;46.32;100433.94;5017325;28;20098;-63
2023/01/19 10:45:28;;;;;;;14.85;7.07;;;;;;;12.15;47.18;100425.03;5019846;28;20030;-63
2023/01/19 10:47:55;;;;;;;17.83;7.40;;;;;;;12.16;46.15;100424.91;5019107;28;20060;-64
2023/01/19 10:50:22;;;;;;;19.42;7.00;;;;;;;12.24;46.99;100432.22;5018997;28;20048;-63
2023/01/19 10:52:52;;;;;;;15.40;6.90;;;;;;;12.17;46.24;100428.44;5019980;28;20026;-64
2023/01/19 10:55:28;;;;;;;19.35;6.38;;;;;;;12.19;47.25;100432.66;5019999;28;20061;-64
2023/01/19 10:57:54;;;;;;;20.20;7.38;;;;;;;12.19;46.13;100426.44;5018992;28;20038;-64
2023/01/19 11:00:37;;;;;;;17.70;6.60;;;;;;;12.15;46.87;100425.88;5017906;28;20030;-64
2023/01/19 11:03:04;;;;;;;16.88;6.65;;;;;;;12.11;46.75;100432.56;5019859;28;20049;-63
2023/01/19 11:05:31;;;;;;;18.98;6.63;;;;;;;12.11;46.04;100423.66;5018542;28;20033;-63
2023/01/19 11:07:57;;;;;;;20.20;7.57;;;;;;;12.03;46.90;100432.44;5001637;28;20489;-63
2023/01/19 11:10:27;;;;;;;19.17;6.85;;;;;;;11.95;46.77;100432.34;5018714;28;20022;-63
2023/01/19 11:12:56;;;;;;;17.08;7.05;;;;;;;11.88;47.08;100439.31;5019263;28;20046;-63
2023/01/19 11:15:28;;;;;;;25.95;7.28;;;;;;;11.86;46.95;100435.94;5017589;28;20041;-64
2023/01/19 11:17:54;;;;;;;16.15;7.40;;;;;;;11.80;46.47;100428.47;5017736;28;20034;-64
2023/01/19 11:20:47;;;;;;;17.85;7.20;;;;;;;11.73;46.79;100435.38;5018907;28;20049;-64
2023/01/19 11:23:46;;;;;;;21.92;6.72;;;;;;;11.70;46.36;100435.69;5019219;28;20030;-64
2023/01/19 11:26:33;;;;;;;15.23;6.63;;;;;;;11.68;46.72;100432.28;5013861;28;20042;-63
2023/01/19 11:29:00;;;;;;;14.45;6.72;;;;;;;11.68;46.54;100434.94;5018572;28;20508;-64
2023/01/19 11:31:32;;;;;;;17.58;6.85;;;;;;;11.71;46.07;100432.00;5019028;28;20117;-64
2023/01/19 11:34:18;;;;;;;13.25;7.28;;;;;;;11.74;46.85;100442.44;5017670;28;20556;-63
2023/01/19 11:36:55;;;;;;;16.67;6.80;;;;;;;11.64;46.26;100425.53;5019054;28;20042;-64
2023/01/19 11:39:23;;;;;;;16.80;6.60;;;;;;;11.69;46.66;100434.00;5018718;28;20117;-63
2023/01/19 11:41:53;;;;;;;16.88;6.65;;;;;;;11.67;46.25;100436.78;5016821;28;20065;-63